Time;durP1;ratioP1;P1;durP2;ratioP2;P2;SDS_P1;SDS_P2;PMS_P1;PMS_P2;Temp;Humidity;BMP_temperature;BMP_pressure;BME280_temperature;BME280_humidity;BME280_pressure;Samples;Min_cycle;Max_cycle;Signal;HPM_P1;HPM_P2
2024/02/12 00:00:27;;;;;;;2.05;1.10;;;;;16.30;98556.00;;;;2070340;28;20392;-57
2024/02/12 00:01:29;;;;;;;1.90;0.80;;;;;16.30;98550.00;;;;2069956;28;20227;-58
2024/02/12 00:02:29;;;;;;;2.00;1.13;;;;;16.30;98556.00;;;;2069600;28;20211;-57
2024/02/12 00:03:31;;;;;;;1.80;0.90;;;;;16.30;98550.00;;;;2053200;28;20295;-57
2024/02/12 00:04:31;;;;;;;3.22;1.30;;;;;16.30;98555.00;;;;2043027;28;20217;-57
2024/02/12 00:05:38;;;;;;;2.90;1.50;;;;;16.30;98555.00;;;;2069803;28;20206;-58
2024/02/12 00:06:38;;;;;;;2.03;1.00;;;;;16.30;98550.00;;;;2066747;28;20222;-57
2024/02/12 00:07:39;;;;;;;2.23;1.43;;;;;16.30;98547.00;;;;2069813;28;20822;-57
2024/02/12 00:08:40;;;;;;;1.90;0.93;;;;;16.30;98550.00;;;;2067188;28;20638;-57
2024/02/12 00:09:40;;;;;;;1.90;0.90;;;;;16.30;98553.00;;;;2057334;28;20219;-57
2024/02/12 00:10:41;;;;;;;2.37;1.20;;;;;16.30;98625.00;;;;2074986;28;20484;-57
2024/02/12 00:11:42;;;;;;;2.90;1.20;;;;;15.60;98557.00;;;;2069272;28;20218;-57
2024/02/12 00:12:42;;;;;;;2.93;1.23;;;;;16.20;98557.00;;;;2074362;28;20218;-57
2024/02/12 00:13:42;;;;;;;2.70;1.20;;;;;16.30;98555.00;;;;2067400;28;20308;-57
2024/02/12 00:14:44;;;;;;;2.27;1.20;;;;;16.30;98561.00;;;;2063029;28;20219;-57
2024/02/12 00:15:45;;;;;;;1.88;0.90;;;;;16.30;98566.00;;;;2070587;28;20234;-57
2024/02/12 00:16:45;;;;;;;2.20;1.13;;;;;16.30;98555.00;;;;2066971;28;20210;-58
2024/02/12 00:17:46;;;;;;;2.00;1.00;;;;;16.30;98564.00;;;;2072611;28;20237;-57
2024/02/12 00:18:46;;;;;;;2.40;1.13;;;;;16.30;98562.00;;;;2067651;28;20222;-57
2024/02/12 00:19:48;;;;;;;1.67;0.90;;;;;16.30;98563.00;;;;2059805;28;20673;-57
2024/02/12 00:20:49;;;;;;;1.90;0.90;;;;;16.30;98569.00;;;;2063755;28;20215;-57
2024/02/12 00:21:49;;;;;;;2.20;1.17;;;;;16.30;98572.00;;;;2070041;28;20242;-57
2024/02/12 00:22:50;;;;;;;2.10;1.17;;;;;16.30;98574.00;;;;2071495;28;20230;-57
2024/02/12 00:23:51;;;;;;;1.80;0.90;;;;;16.30;98570.00;;;;2073910;28;20619;-57
2024/02/12 00:24:52;;;;;;;2.37;1.13;;;;;16.30;98569.00;;;;2067080;28;20239;-57
2024/02/12 00:25:52;;;;;;;2.70;1.30;;;;;16.20;98557.00;;;;2066166;28;20238;-57
2024/02/12 00:26:53;;;;;;;2.03;1.17;;;;;16.30;98568.00;;;;2073127;28;20291;-57
2024/02/12 00:27:55;;;;;;;2.90;1.47;;;;;16.30;98562.00;;;;2070425;28;20221;-57
2024/02/12 00:28:55;;;;;;;1.98;1.20;;;;;16.30;98571.00;;;;2069476;28;20210;-57
2024/02/12 00:29:55;;;;;;;2.17;1.43;;;;;16.30;98564.00;;;;2055313;28;21677;-57
2024/02/12 00:30:59;;;;;;;2.57;1.20;;;;;16.30;98573.00;;;;2070814;28;20211;-57
2024/02/12 00:32:00;;;;;;;2.47;1.20;;;;;16.30;98569.00;;;;2071802;28;20235;-57
2024/02/12 00:33:03;;;;;;;2.42;1.02;;;;;16.20;98561.00;;;;2070098;28;20203;-57
2024/02/12 00:34:04;;;;;;;2.70;1.20;;;;;16.30;98575.00;;;;2054914;28;20541;-57
2024/02/12 00:35:05;;;;;;;2.23;1.40;;;;;16.30;98566.00;;;;2041958;28;20284;-57
2024/02/12 00:36:05;;;;;;;2.47;1.10;;;;;16.30;98575.00;;;;2075300;28;20248;-58
2024/02/12 00:37:06;;;;;;;2.17;1.10;;;;;16.30;98574.00;;;;2066263;28;20474;-58
2024/02/12 00:38:07;;;;;;;2.30;1.37;;;;;16.30;98576.00;;;;2073798;28;20210;-57
2024/02/12 00:39:09;;;;;;;2.33;1.20;;;;;16.30;98577.00;;;;2074205;28;20236;-57
2024/02/12 00:40:09;;;;;;;2.80;1.50;;;;;16.30;98574.00;;;;2066261;28;20217;-57
2024/02/12 00:41:20;;;;;;;2.20;1.30;;;;;16.30;98575.00;;;;2077817;28;20230;-57
2024/02/12 00:42:21;;;;;;;2.50;1.30;;;;;16.30;98578.00;;;;2061992;28;20227;-58
2024/02/12 00:43:22;;;;;;;2.75;1.63;;;;;16.30;98578.00;;;;2069369;28;20310;-57
2024/02/12 00:44:22;;;;;;;2.10;1.13;;;;;16.30;98582.00;;;;2063548;28;20222;-57
2024/02/12 00:45:23;;;;;;;2.17;1.17;;;;;16.30;98585.00;;;;2067700;28;20218;-57
2024/02/12 00:46:23;;;;;;;2.20;1.20;;;;;16.30;98586.00;;;;2070961;28;20219;-57
2024/02/12 00:47:25;;;;;;;2.67;1.00;;;;;16.30;98583.00;;;;2076551;28;20210;-57
2024/02/12 00:48:26;;;;;;;2.78;1.42;;;;;16.30;98588.00;;;;2068963;28;20210;-57
2024/02/12 00:49:26;;;;;;;2.20;1.10;;;;;16.30;98587.00;;;;2053274;28;20221;-57
2024/02/12 00:50:26;;;;;;;2.33;1.23;;;;;16.30;98589.00;;;;2070210;28;20285;-57
2024/02/12 00:51:27;;;;;;;2.80;1.43;;;;;16.30;98592.00;;;;2068608;28;20289;-57
2024/02/12 00:52:27;;;;;;;2.40;1.10;;;;;16.30;98587.00;;;;2076622;28;20228;-57
2024/02/12 00:53:28;;;;;;;2.57;1.27;;;;;16.20;98587.00;;;;2058074;28;20217;-57
2024/02/12 00:54:30;;;;;;;2.58;1.17;;;;;16.20;98586.00;;;;2050643;28;20238;-57
2024/02/12 00:55:30;;;;;;;1.90;1.10;;;;;16.30;98591.00;;;;2068828;28;20303;-57
2024/02/12 00:56:30;;;;;;;2.27;1.20;;;;;16.30;98595.00;;;;2061763;28;20215;-58
2024/02/12 00:57:31;;;;;;;1.80;1.00;;;;;16.30;98588.00;;;;2069621;28;20288;-58
2024/02/12 00:58:32;;;;;;;2.30;1.30;;;;;16.30;98588.00;;;;2065873;28;20239;-57
2024/02/12 00:59:38;;;;;;;2.00;1.30;;;;;16.30;98596.00;;;;2067375;28;20214;-57
2024/02/12 01:00:39;;;;;;;2.03;0.90;;;;;16.30;98594.00;;;;2073400;28;20218;-57
2024/02/12 01:01:39;;;;;;;2.17;1.17;;;;;16.20;98587.00;;;;2069314;28;20588;-57
2024/02/12 01:02:42;;;;;;;1.90;1.20;;;;;16.30;98594.00;;;;2069488;28;20219;-57
2024/02/12 01:03:44;;;;;;;2.53;1.42;;;;;16.30;98597.00;;;;2069098;28;20222;-57
2024/02/12 01:04:44;;;;;;;2.75;1.27;;;;;16.30;98598.00;;;;2054364;28;21867;-57
2024/02/12 01:05:45;;;;;;;2.43;1.30;;;;;16.30;98596.00;;;;2069281;28;20215;-57
2024/02/12 01:06:45;;;;;;;2.10;1.00;;;;;16.30;98600.00;;;;2066237;28;20233;-57
2024/02/12 01:07:46;;;;;;;2.30;1.30;;;;;16.30;98596.00;;;;2069273;28;20453;-57
2024/02/12 01:08:47;;;;;;;2.70;1.40;;;;;16.20;98594.00;;;;2066449;28;20211;-60
2024/02/12 01:09:47;;;;;;;2.50;1.20;;;;;16.20;98596.00;;;;2058242;28;20240;-57
2024/02/12 01:10:48;;;;;;;2.40;1.50;;;;;16.20;98588.00;;;;2075836;28;20646;-57
2024/02/12 01:11:48;;;;;;;2.40;1.40;;;;;16.20;98603.00;;;;2062149;28;20642;-58
2024/02/12 01:12:49;;;;;;;2.87;1.40;;;;;16.30;98602.00;;;;2064757;28;20573;-57
2024/02/12 01:13:50;;;;;;;2.42;1.25;;;;;16.20;98602.00;;;;2071335;28;20277;-57
2024/02/12 01:14:51;;;;;;;2.50;1.40;;;;;16.20;98603.00;;;;2063470;28;20269;-57
2024/02/12 01:15:51;;;;;;;3.70;1.70;;;;;16.20;98607.00;;;;2068264;28;20263;-57
2024/02/12 01:16:51;;;;;;;2.30;1.33;;;;;16.30;98605.00;;;;2067491;28;20225;-57
2024/02/12 01:17:53;;;;;;;2.30;1.40;;;;;16.20;98609.00;;;;2068975;28;20221;-58
2024/02/12 01:18:54;;;;;;;2.20;1.20;;;;;16.30;98608.00;;;;2072720;28;20206;-57
2024/02/12 01:19:54;;;;;;;2.20;1.10;;;;;16.20;98619.00;;;;2067520;28;20234;-57
2024/02/12 01:20:55;;;;;;;2.10;1.00;;;;;16.20;98618.00;;;;2066093;28;20224;-57
2024/02/12 01:21:56;;;;;;;2.20;1.23;;;;;16.30;98624.00;;;;2070728;28;20206;-57
2024/02/12 01:22:56;;;;;;;1.90;1.20;;;;;16.30;98617.00;;;;2071949;28;20207;-57
2024/02/12 01:23:56;;;;;;;2.10;1.27;;;;;16.20;98616.00;;;;2065799;28;20252;-58
2024/02/12 01:24:58;;;;;;;2.30;1.33;;;;;16.30;98622.00;;;;2059352;28;20218;-57
2024/02/12 01:25:59;;;;;;;3.35;1.50;;;;;16.30;98622.00;;;;2071355;28;20312;-57
2024/02/12 01:26:59;;;;;;;2.50;1.40;;;;;16.30;98626.00;;;;2076026;28;20251;-57
2024/02/12 01:28:00;;;;;;;3.70;1.40;;;;;16.30;98637.00;;;;2067158;28;20215;-57
2024/02/12 01:29:01;;;;;;;2.40;1.20;;;;;16.30;98632.00;;;;2071699;28;20333;-57
2024/02/12 01:30:03;;;;;;;2.22;1.38;;;;;16.20;98634.00;;;;2059166;28;20234;-57
2024/02/12 01:31:09;;;;;;;2.25;1.30;;;;;16.20;98630.00;;;;2066338;28;20646;-57
2024/02/12 01:32:09;;;;;;;2.60;1.42;;;;;16.30;98638.00;;;;2066411;28;20222;-57
2024/02/12 01:33:09;;;;;;;3.33;1.40;;;;;16.30;98636.00;;;;2065813;28;20229;-57
2024/02/12 01:34:10;;;;;;;2.57;1.57;;;;;16.30;98632.00;;;;2068969;28;20219;-57
2024/02/12 01:35:11;;;;;;;2.17;1.27;;;;;16.30;98636.00;;;;2055497;28;20233;-57
2024/02/12 01:36:11;;;;;;;2.17;1.20;;;;;16.30;98645.00;;;;2067469;28;20226;-57
2024/02/12 01:37:12;;;;;;;3.27;1.23;;;;;16.30;98645.00;;;;2071251;28;20213;-57
2024/02/12 01:38:14;;;;;;;2.60;1.30;;;;;16.30;98641.00;;;;2068735;28;20264;-58
2024/02/12 01:39:14;;;;;;;3.33;1.92;;;;;16.30;98648.00;;;;2075822;28;20717;-57
2024/02/12 01:40:15;;;;;;;2.00;1.10;;;;;16.30;98648.00;;;;2051070;28;20214;-57
2024/02/12 01:41:17;;;;;;;2.43;1.20;;;;;16.30;98651.00;;;;2068386;28;20223;-57
2024/02/12 01:42:19;;;;;;;2.00;1.20;;;;;16.20;98646.00;;;;2065191;28;20248;-58
2024/02/12 01:43:30;;;;;;;2.45;1.35;;;;;16.20;98642.00;;;;2068456;28;20537;-57
2024/02/12 01:44:30;;;;;;;2.75;1.50;;;;;16.30;98650.00;;;;2055230;28;20314;-57
2024/02/12 01:45:31;;;;;;;1.90;1.13;;;;;16.30;98648.00;;;;2068890;28;20215;-58
2024/02/12 01:46:32;;;;;;;2.50;1.48;;;;;16.30;98655.00;;;;2066072;28;20210;-57
2024/02/12 01:47:33;;;;;;;2.33;1.17;;;;;16.30;98656.00;;;;2062385;28;20227;-57
2024/02/12 01:48:35;;;;;;;2.45;1.27;;;;;16.20;98659.00;;;;2076916;28;20210;-57
2024/02/12 01:49:36;;;;;;;3.60;1.50;;;;;16.20;98650.00;;;;2055345;28;20262;-57
2024/02/12 01:50:36;;;;;;;2.40;1.40;;;;;16.30;98618.00;;;;2068336;28;20248;-57
2024/02/12 01:51:36;;;;;;;3.10;1.43;;;;;16.20;98594.00;;;;2051876;28;20236;-58
2024/02/12 01:52:37;;;;;;;2.43;1.23;;;;;16.20;98734.00;;;;2052390;28;20696;-57
2024/02/12 01:53:38;;;;;;;2.90;1.50;;;;;16.20;98655.00;;;;2051686;28;20740;-57
2024/02/12 01:54:39;;;;;;;2.25;1.00;;;;;16.30;98656.00;;;;2042577;28;20666;-58
2024/02/12 01:55:41;;;;;;;2.65;1.13;;;;;16.30;98654.00;;;;2062007;28;20235;-58
2024/02/12 01:56:42;;;;;;;2.80;1.30;;;;;16.20;98622.00;;;;2057816;28;20219;-58
2024/02/12 01:57:42;;;;;;;2.35;1.30;;;;;16.20;98662.00;;;;2044215;28;22326;-57
2024/02/12 01:58:43;;;;;;;2.83;1.40;;;;;16.30;98661.00;;;;2051719;28;20302;-57
2024/02/12 01:59:43;;;;;;;2.60;1.40;;;;;16.30;98666.00;;;;2067112;28;20213;-57
2024/02/12 02:00:48;;;;;;;3.50;1.60;;;;;16.30;98675.00;;;;2074747;28;20305;-58
2024/02/12 02:01:49;;;;;;;3.00;1.40;;;;;16.30;98665.00;;;;2069742;28;20212;-58
2024/02/12 02:02:50;;;;;;;3.50;1.50;;;;;16.30;98668.00;;;;2073429;28;20745;-58
2024/02/12 02:03:52;;;;;;;2.65;1.80;;;;;16.20;98664.00;;;;2072761;28;20215;-57
2024/02/12 02:04:55;;;;;;;2.15;1.50;;;;;16.30;98668.00;;;;2050333;28;20569;-58
2024/02/12 02:05:56;;;;;;;2.03;1.00;;;;;16.20;98670.00;;;;2057873;28;20270;-57
2024/02/12 02:06:57;;;;;;;2.58;1.55;;;;;16.30;98666.00;;;;2060168;28;20559;-58
2024/02/12 02:08:00;;;;;;;2.13;1.40;;;;;16.30;98665.00;;;;2065659;28;20211;-58
2024/02/12 02:09:00;;;;;;;2.20;1.55;;;;;16.30;98663.00;;;;2066104;28;20215;-58
2024/02/12 02:10:01;;;;;;;2.30;1.17;;;;;16.30;98669.00;;;;2055373;28;20241;-58
2024/02/12 02:11:05;;;;;;;2.08;1.10;;;;;16.30;98674.00;;;;2067730;28;20238;-58
2024/02/12 02:12:05;;;;;;;2.50;1.45;;;;;16.20;98670.00;;;;2070816;28;20213;-58
2024/02/12 02:13:06;;;;;;;2.50;1.50;;;;;16.20;98672.00;;;;2071042;28;20229;-58
2024/02/12 02:14:06;;;;;;;2.40;1.23;;;;;16.30;98675.00;;;;2052716;28;20221;-58
2024/02/12 02:15:07;;;;;;;2.87;1.30;;;;;16.20;98657.00;;;;2048141;28;20698;-58
2024/02/12 02:16:11;;;;;;;2.80;1.40;;;;;16.30;98730.00;;;;2059606;28;20706;-58
2024/02/12 02:17:13;;;;;;;2.30;1.30;;;;;16.30;98677.00;;;;2064136;28;20214;-58
2024/02/12 02:18:15;;;;;;;3.90;1.33;;;;;16.20;98675.00;;;;2068215;28;20214;-58
2024/02/12 02:19:15;;;;;;;2.58;1.50;;;;;16.30;98685.00;;;;2066309;28;20233;-58
2024/02/12 02:20:16;;;;;;;2.13;1.23;;;;;16.20;98635.00;;;;2052419;28;20595;-58
2024/02/12 02:21:17;;;;;;;2.33;1.42;;;;;16.20;98686.00;;;;2053543;28;20688;-57
2024/02/12 02:22:18;;;;;;;2.40;1.37;;;;;16.30;98686.00;;;;2066550;28;20217;-58
2024/02/12 02:23:18;;;;;;;2.17;1.00;;;;;16.20;98681.00;;;;2064439;28;20461;-58
2024/02/12 02:24:18;;;;;;;2.53;1.53;;;;;16.30;98677.00;;;;2067588;28;20474;-58
2024/02/12 02:25:22;;;;;;;2.20;1.30;;;;;16.30;98598.00;;;;2062314;28;20252;-58
2024/02/12 02:26:23;;;;;;;2.20;1.23;;;;;16.30;98691.00;;;;2075392;28;20201;-59
2024/02/12 02:27:25;;;;;;;2.85;1.40;;;;;16.30;98683.00;;;;2076673;28;20237;-58
2024/02/12 02:28:26;;;;;;;2.45;1.33;;;;;16.20;98682.00;;;;2062003;28;20211;-57
2024/02/12 02:29:27;;;;;;;3.00;1.25;;;;;16.20;98685.00;;;;2059493;28;20676;-58
2024/02/12 02:30:27;;;;;;;1.97;1.17;;;;;16.20;98682.00;;;;2072167;28;20207;-57
2024/02/12 02:31:28;;;;;;;2.77;1.40;;;;;16.30;98684.00;;;;2077015;28;20737;-58
2024/02/12 02:32:28;;;;;;;2.50;1.37;;;;;16.20;98690.00;;;;2072538;28;20389;-58
2024/02/12 02:33:29;;;;;;;2.57;1.30;;;;;16.30;98690.00;;;;2070695;28;21400;-57
2024/02/12 02:34:30;;;;;;;2.50;1.40;;;;;16.30;98698.00;;;;2062091;28;20280;-58
2024/02/12 02:35:31;;;;;;;2.30;1.30;;;;;16.20;98689.00;;;;2063710;28;20231;-58
2024/02/12 02:36:34;;;;;;;2.70;1.65;;;;;16.20;98685.00;;;;2068487;28;21216;-57
2024/02/12 02:37:35;;;;;;;3.25;1.73;;;;;16.20;98706.00;;;;2069175;28;20213;-58
2024/02/12 02:38:35;;;;;;;2.60;1.20;;;;;16.20;98699.00;;;;2050488;28;20210;-57
2024/02/12 02:39:36;;;;;;;2.47;1.40;;;;;16.20;98697.00;;;;2047589;28;20226;-58
2024/02/12 02:40:37;;;;;;;2.63;1.30;;;;;16.20;98694.00;;;;2064036;28;20235;-58
2024/02/12 02:41:42;;;;;;;3.15;1.27;;;;;16.20;98701.00;;;;2067094;28;20381;-58
2024/02/12 02:42:46;;;;;;;2.92;1.60;;;;;16.20;98700.00;;;;2061599;28;20281;-57
2024/02/12 02:43:48;;;;;;;2.65;1.50;;;;;16.30;98708.00;;;;2070898;28;20218;-57
2024/02/12 02:44:48;;;;;;;2.45;1.50;;;;;16.20;98699.00;;;;2051123;28;20239;-57
2024/02/12 02:45:49;;;;;;;4.00;1.73;;;;;16.20;98708.00;;;;2060006;28;20305;-57
2024/02/12 02:46:50;;;;;;;2.60;1.33;;;;;16.20;98705.00;;;;2063887;28;20619;-58
2024/02/12 02:47:55;;;;;;;2.60;1.63;;;;;15.80;98707.00;;;;2063950;28;20219;-57
2024/02/12 02:48:55;;;;;;;2.50;1.27;;;;;16.20;98711.00;;;;2072239;28;20221;-58
2024/02/12 02:49:57;;;;;;;2.30;1.50;;;;;16.30;98732.00;;;;2059244;28;20225;-57
2024/02/12 02:50:58;;;;;;;2.30;1.38;;;;;16.30;98722.00;;;;2072323;28;20259;-58
2024/02/12 02:51:58;;;;;;;2.63;1.43;;;;;16.30;98706.00;;;;2059183;28;20211;-58
2024/02/12 02:53:01;;;;;;;2.40;1.53;;;;;16.30;98712.00;;;;2059886;28;20309;-58
2024/02/12 02:54:03;;;;;;;2.22;1.30;;;;;16.30;98707.00;;;;2065360;28;20229;-58
2024/02/12 02:55:03;;;;;;;3.45;1.60;;;;;16.30;98714.00;;;;2057529;28;20233;-58
2024/02/12 02:56:04;;;;;;;2.70;1.50;;;;;16.30;98715.00;;;;2074660;28;20242;-58
2024/02/12 02:57:07;;;;;;;3.23;1.20;;;;;16.30;98716.00;;;;2068014;28;20287;-58
2024/02/12 02:58:08;;;;;;;2.30;1.35;;;;;16.30;98715.00;;;;2070377;28;21202;-58
2024/02/12 02:59:09;;;;;;;2.53;1.40;;;;;16.20;98796.00;;;;2068583;28;20218;-57
2024/02/12 03:00:11;;;;;;;3.47;1.38;;;;;16.20;98722.00;;;;2057811;28;20276;-58
2024/02/12 03:01:12;;;;;;;2.75;1.65;;;;;16.30;98719.00;;;;2063066;28;20229;-58
2024/02/12 03:02:12;;;;;;;2.95;1.70;;;;;16.30;98725.00;;;;2070356;28;20316;-57
2024/02/12 03:03:13;;;;;;;2.50;1.50;;;;;16.30;98724.00;;;;2069881;28;20237;-57
2024/02/12 03:04:16;;;;;;;2.40;1.33;;;;;16.30;98719.00;;;;2068917;28;20215;-58
2024/02/12 03:05:17;;;;;;;3.50;1.73;;;;;16.30;98717.00;;;;2067060;28;20206;-58
2024/02/12 03:06:18;;;;;;;3.10;1.70;;;;;16.30;98726.00;;;;2064372;28;20222;-58
2024/02/12 03:07:19;;;;;;;2.80;1.60;;;;;16.30;98721.00;;;;2076147;28;20705;-57
2024/02/12 03:08:19;;;;;;;2.60;1.60;;;;;16.30;98720.00;;;;2067236;28;20239;-58
2024/02/12 03:09:21;;;;;;;3.20;1.77;;;;;16.30;98724.00;;;;2076859;28;20213;-58
2024/02/12 03:10:21;;;;;;;2.75;1.42;;;;;16.30;98721.00;;;;2067160;28;20625;-58
2024/02/12 03:11:25;;;;;;;3.80;2.10;;;;;16.20;98723.00;;;;2062165;28;20218;-57
2024/02/12 03:12:26;;;;;;;3.88;1.90;;;;;16.20;98734.00;;;;2062333;28;20218;-57
2024/02/12 03:13:27;;;;;;;2.47;1.60;;;;;16.30;98728.00;;;;2055668;28;20212;-58
2024/02/12 03:14:28;;;;;;;2.90;1.50;;;;;16.30;98733.00;;;;2059333;28;20898;-57
2024/02/12 03:15:31;;;;;;;3.43;1.60;;;;;16.30;98734.00;;;;2070034;28;20217;-58
2024/02/12 03:16:33;;;;;;;2.95;1.90;;;;;16.30;98726.00;;;;2076438;28;20802;-58
2024/02/12 03:17:33;;;;;;;2.83;1.65;;;;;16.30;98692.00;;;;2074369;28;20221;-58
2024/02/12 03:18:33;;;;;;;2.90;1.70;;;;;16.30;98734.00;;;;2071270;28;20209;-58
2024/02/12 03:19:34;;;;;;;5.33;1.97;;;;;16.30;98737.00;;;;2068495;28;20213;-58
2024/02/12 03:20:37;;;;;;;2.83;1.87;;;;;16.30;98735.00;;;;2055218;28;20266;-57
2024/02/12 03:21:37;;;;;;;2.45;1.55;;;;;16.20;98748.00;;;;2069769;28;20210;-57
2024/02/12 03:22:39;;;;;;;2.80;1.60;;;;;16.30;98736.00;;;;2069771;28;20690;-58
2024/02/12 03:23:40;;;;;;;3.28;1.90;;;;;16.30;98733.00;;;;2063181;28;20221;-58
2024/02/12 03:24:40;;;;;;;2.53;1.60;;;;;16.30;98734.00;;;;2055959;28;20217;-57
2024/02/12 03:25:41;;;;;;;4.43;1.80;;;;;16.30;98735.00;;;;2064098;28;20949;-58
2024/02/12 03:26:42;;;;;;;2.60;1.60;;;;;15.00;98730.00;;;;2067618;28;20718;-58
2024/02/12 03:27:43;;;;;;;2.57;1.43;;;;;16.30;98738.00;;;;2063997;28;20339;-57
2024/02/12 03:28:44;;;;;;;3.47;1.73;;;;;16.30;98800.00;;;;2072715;28;20687;-58
2024/02/12 03:29:47;;;;;;;2.80;1.87;;;;;16.30;98735.00;;;;2061863;28;20230;-57
2024/02/12 03:30:48;;;;;;;2.70;1.50;;;;;16.30;98739.00;;;;2074815;28;20252;-62
2024/02/12 03:31:48;;;;;;;3.93;2.10;;;;;16.30;98736.00;;;;2067055;28;20210;-58
2024/02/12 03:32:49;;;;;;;3.23;1.70;;;;;16.20;98743.00;;;;2064634;28;20309;-59
2024/02/12 03:33:49;;;;;;;2.67;1.63;;;;;16.20;98741.00;;;;2071785;28;20232;-58
2024/02/12 03:34:49;;;;;;;3.00;2.00;;;;;16.20;98743.00;;;;2058356;28;20221;-58
2024/02/12 03:35:50;;;;;;;2.80;1.70;;;;;16.20;98738.00;;;;2077944;28;20781;-58
2024/02/12 03:36:50;;;;;;;3.00;1.93;;;;;16.20;98867.00;;;;2070991;28;20597;-57
2024/02/12 03:37:50;;;;;;;2.77;1.77;;;;;16.20;98741.00;;;;2074759;28;21335;-58
2024/02/12 03:38:52;;;;;;;3.70;2.23;;;;;16.20;98748.00;;;;2067384;28;20742;-58
2024/02/12 03:39:52;;;;;;;2.75;1.73;;;;;16.20;98742.00;;;;2055694;28;20230;-57
2024/02/12 03:40:56;;;;;;;3.37;1.93;;;;;16.20;98742.00;;;;2071956;28;20329;-58
2024/02/12 03:41:57;;;;;;;3.40;1.88;;;;;16.20;98752.00;;;;2070561;28;20218;-57
2024/02/12 03:42:57;;;;;;;2.43;1.60;;;;;16.20;98739.00;;;;2073855;28;20198;-58
2024/02/12 03:43:58;;;;;;;3.57;1.90;;;;;16.30;98747.00;;;;2072565;28;20209;-58
2024/02/12 03:45:00;;;;;;;3.20;2.00;;;;;16.30;98747.00;;;;2063132;28;20223;-57
2024/02/12 03:46:01;;;;;;;3.90;1.90;;;;;16.30;98748.00;;;;2059678;28;20613;-58
2024/02/12 03:47:03;;;;;;;3.50;1.90;;;;;16.30;98750.00;;;;2064502;28;20225;-57
2024/02/12 03:59:50;;;;;;;2.70;1.70;;;;;16.30;98749.00;;;;2071483;28;20675;-58
2024/02/12 04:00:09;;;;;;;3.63;2.00;;;;;16.20;98762.00;;;;2061503;28;20213;-57
2024/02/12 04:01:11;;;;;;;3.25;2.10;;;;;16.20;98766.00;;;;2075650;28;20259;-57
2024/02/12 04:02:11;;;;;;;3.13;2.22;;;;;16.20;98773.00;;;;2071561;28;20216;-57
2024/02/12 04:03:13;;;;;;;3.00;2.00;;;;;16.20;98784.00;;;;2067741;28;20222;-58
2024/02/12 04:04:14;;;;;;;3.90;2.33;;;;;16.20;98782.00;;;;2069683;28;20206;-57
2024/02/12 04:05:17;;;;;;;3.80;2.23;;;;;16.20;98780.00;;;;2054056;28;20747;-57
2024/02/12 04:06:18;;;;;;;4.50;2.53;;;;;16.20;98791.00;;;;2075400;28;20673;-58
2024/02/12 04:07:19;;;;;;;3.37;2.13;;;;;16.20;98782.00;;;;2060555;28;20218;-60
2024/02/12 04:08:19;;;;;;;3.37;1.97;;;;;16.20;98792.00;;;;2060189;28;20574;-58
2024/02/12 04:09:20;;;;;;;3.13;2.00;;;;;15.50;98786.00;;;;2067713;28;20457;-57
2024/02/12 04:10:23;;;;;;;3.00;2.10;;;;;16.20;98791.00;;;;2066710;28;20217;-58
2024/02/12 04:11:23;;;;;;;3.55;2.47;;;;;16.20;98806.00;;;;2070276;28;20286;-58
2024/02/12 04:12:23;;;;;;;3.03;2.07;;;;;16.20;98807.00;;;;2062064;28;20261;-58
2024/02/12 04:13:26;;;;;;;2.97;2.07;;;;;16.20;98820.00;;;;2069412;28;20219;-58
2024/02/12 04:14:31;;;;;;;3.55;2.17;;;;;16.20;98807.00;;;;2055391;28;20215;-58
2024/02/12 04:15:37;;;;;;;3.17;2.13;;;;;16.20;98819.00;;;;2062140;28;21113;-57
2024/02/12 04:16:39;;;;;;;4.78;2.70;;;;;16.20;98818.00;;;;2070422;28;20250;-57
2024/02/12 04:17:39;;;;;;;3.05;2.03;;;;;16.30;98815.00;;;;2063235;28;20218;-58
2024/02/12 04:18:41;;;;;;;4.53;2.20;;;;;16.20;98825.00;;;;2069562;28;20221;-57
2024/02/12 04:19:42;;;;;;;3.42;2.10;;;;;16.20;98822.00;;;;2054783;28;20227;-58
2024/02/12 04:20:43;;;;;;;3.47;2.80;;;;;16.30;98826.00;;;;2069604;28;20226;-57
2024/02/12 04:21:44;;;;;;;4.03;2.60;;;;;16.20;98820.00;;;;2067336;28;20571;-58
2024/02/12 04:22:48;;;;;;;3.20;2.20;;;;;16.20;98823.00;;;;2069725;28;20352;-58
2024/02/12 04:23:49;;;;;;;4.00;2.17;;;;;16.30;98827.00;;;;2057758;28;20220;-58
2024/02/12 04:24:49;;;;;;;3.90;2.53;;;;;16.30;98823.00;;;;2048975;28;20313;-57
2024/02/12 04:25:50;;;;;;;4.30;2.40;;;;;16.30;98833.00;;;;2077661;28;20712;-57
2024/02/12 04:26:52;;;;;;;5.27;2.90;;;;;16.30;98833.00;;;;2067047;28;20957;-58
2024/02/12 04:27:54;;;;;;;4.28;2.65;;;;;16.30;98831.00;;;;2074487;28;20454;-57
2024/02/12 04:28:54;;;;;;;4.55;2.70;;;;;16.20;98834.00;;;;2071899;28;20244;-58
2024/02/12 04:29:57;;;;;;;5.60;3.07;;;;;16.20;98828.00;;;;2064240;28;20219;-58
2024/02/12 04:30:57;;;;;;;4.20;2.85;;;;;16.30;98835.00;;;;2065858;28;20343;-58
2024/02/12 04:31:58;;;;;;;4.60;2.50;;;;;16.30;98838.00;;;;2065867;28;20736;-58
2024/02/12 04:32:59;;;;;;;3.90;2.60;;;;;16.30;98845.00;;;;2070679;28;20689;-57
2024/02/12 04:33:59;;;;;;;4.30;2.70;;;;;16.20;98834.00;;;;2069854;28;20218;-57
2024/02/12 04:34:59;;;;;;;3.50;2.33;;;;;16.20;98837.00;;;;2067822;28;20701;-57
2024/02/12 04:36:01;;;;;;;3.87;2.47;;;;;16.20;98838.00;;;;2068535;28;20698;-58
2024/02/12 04:37:02;;;;;;;4.72;2.95;;;;;16.20;98840.00;;;;2068306;28;20206;-57
2024/02/12 04:38:03;;;;;;;3.88;2.67;;;;;16.20;98845.00;;;;2065261;28;20211;-59
2024/02/12 04:39:04;;;;;;;4.03;2.40;;;;;16.30;98836.00;;;;2066357;28;20213;-57
2024/02/12 04:40:07;;;;;;;3.43;2.50;;;;;16.30;98832.00;;;;2057044;28;20473;-57
2024/02/12 04:41:08;;;;;;;2.90;1.83;;;;;16.30;98841.00;;;;2066288;28;20222;-58
2024/02/12 04:42:09;;;;;;;3.38;2.30;;;;;16.20;98832.00;;;;2075186;28;20245;-58
2024/02/12 04:43:09;;;;;;;3.67;2.50;;;;;16.20;98834.00;;;;2074128;28;20217;-58
2024/02/12 04:44:09;;;;;;;4.93;2.23;;;;;16.20;98835.00;;;;2077764;28;20229;-58
2024/02/12 04:45:11;;;;;;;4.30;2.10;;;;;16.20;98838.00;;;;2059768;28;20336;-58
2024/02/12 04:46:12;;;;;;;3.58;2.40;;;;;16.20;98844.00;;;;2069613;28;20226;-58
2024/02/12 04:47:12;;;;;;;4.20;2.85;;;;;16.20;98845.00;;;;2069861;28;20226;-58
2024/02/12 04:48:13;;;;;;;3.10;2.30;;;;;16.20;98839.00;;;;2069581;28;20280;-57
2024/02/12 04:49:14;;;;;;;3.70;2.37;;;;;16.20;98827.00;;;;2069508;28;20226;-58
2024/02/12 04:50:14;;;;;;;3.77;2.57;;;;;16.20;98835.00;;;;2051509;28;20240;-58
2024/02/12 04:51:15;;;;;;;5.00;2.73;;;;;16.20;98851.00;;;;2067154;28;20484;-57
2024/02/12 04:52:16;;;;;;;3.50;2.60;;;;;16.20;98848.00;;;;2067926;28;20322;-59
2024/02/12 04:53:16;;;;;;;3.73;3.00;;;;;16.20;98834.00;;;;2067478;28;20225;-58
2024/02/12 04:54:16;;;;;;;3.30;2.10;;;;;16.20;98838.00;;;;2067662;28;20218;-58
2024/02/12 04:55:17;;;;;;;3.80;2.70;;;;;16.20;98851.00;;;;2057888;28;20285;-57
2024/02/12 04:56:17;;;;;;;2.77;2.07;;;;;16.20;98852.00;;;;2060881;28;20257;-58
2024/02/12 04:57:18;;;;;;;2.83;2.20;;;;;16.20;98849.00;;;;2053715;28;20722;-58
2024/02/12 04:58:18;;;;;;;3.40;2.17;;;;;16.20;98816.00;;;;2068303;28;20223;-58
2024/02/12 04:59:21;;;;;;;3.70;2.17;;;;;16.20;98851.00;;;;2068496;28;20238;-57
2024/02/12 05:00:21;;;;;;;4.60;2.53;;;;;16.20;98854.00;;;;2057824;28;20340;-57
2024/02/12 05:01:22;;;;;;;2.83;2.27;;;;;16.20;98851.00;;;;2074091;28;20249;-57
2024/02/12 05:02:22;;;;;;;3.43;2.37;;;;;16.20;98856.00;;;;2059048;28;21141;-59
2024/02/12 05:03:23;;;;;;;3.90;2.70;;;;;16.30;98860.00;;;;2060755;28;20239;-58
2024/02/12 05:04:24;;;;;;;3.55;2.35;;;;;16.20;98853.00;;;;2068688;28;20217;-59
2024/02/12 05:05:24;;;;;;;3.27;2.43;;;;;16.20;98854.00;;;;2058421;28;20244;-58
2024/02/12 05:06:24;;;;;;;3.80;2.30;;;;;16.20;98859.00;;;;2063005;28;20199;-58
2024/02/12 05:07:28;;;;;;;4.93;2.60;;;;;16.20;98868.00;;;;2069555;28;20237;-58
2024/02/12 05:08:28;;;;;;;3.45;2.17;;;;;16.20;98862.00;;;;2068810;28;20218;-57
2024/02/12 05:09:29;;;;;;;3.27;2.33;;;;;16.20;98862.00;;;;2044714;28;20219;-58
2024/02/12 05:10:30;;;;;;;3.08;2.30;;;;;16.20;98847.00;;;;2052677;28;20637;-58
2024/02/12 05:11:32;;;;;;;5.10;2.77;;;;;16.20;98862.00;;;;2069599;28;20309;-58
2024/02/12 05:12:32;;;;;;;3.10;1.95;;;;;16.20;98873.00;;;;2077234;28;20225;-57
2024/02/12 05:13:33;;;;;;;3.60;2.40;;;;;16.20;98857.00;;;;2068636;28;20214;-58
2024/02/12 05:14:34;;;;;;;5.15;2.78;;;;;16.20;98864.00;;;;2054035;28;20219;-57
2024/02/12 05:15:34;;;;;;;3.77;2.20;;;;;16.20;98864.00;;;;2066218;28;20608;-57
2024/02/12 05:16:35;;;;;;;3.30;2.17;;;;;16.20;98867.00;;;;2060314;28;20223;-57
2024/02/12 05:23:09;;;;;;;3.40;2.38;;;;;16.20;98869.00;;;;2064303;28;21020;-58